Flight Track Log - Related Links

Times and Time Zones

All times are in EDT time to prevent confusion due to time zone crossing. See the N71MJ flight status page for this flight to view local times or setup timezone preferences in your user account.

Time Position Orientation Groundspeed Altitude Reporting Facility
EDT Latitude Longitude Course Direction KTS MPH feet Rate Location/Type
Wed 10:16:56 AM 24.6867 -81.7658 358° North 123 142 4,400  Level Miami Center
Wed 10:17:56 AM 24.7222 -81.7650 North 123 142 5,300 900 Climbing Miami Center
Wed 10:18:56 AM 24.7597 -81.7642 North 123 142 6,200 850 Climbing Miami Center
Wed 10:19:00 AM 24.8484 -81.7293 North  Level Estimated
Wed 10:19:56 AM 24.7975 -81.7658 358° North 123 142 7,000  Level Miami Center
Wed 10:20:00 AM 24.8902 -81.7249 North  Level Estimated
Wed 10:20:56 AM 24.8350 -81.7650 North 123 142 7,700  Level Miami Center
Wed 10:21:56 AM 24.8747 -81.7642 North 128 147 8,400 650 Climbing Miami Center
Wed 10:22:56 AM 24.9164 -81.7658 358° North 133 153 9,000 600 Climbing Miami Center
Wed 10:23:56 AM 24.9583 -81.7653 North 144 166 9,600 500 Climbing Miami Center
Wed 10:24:56 AM 25.0019 -81.7669 358° North 144 166 10,000 200 Climbing Miami Center
Wed 10:25:56 AM 25.0481 -81.7667 360° North 150 173 10,000  Level Miami Center
Wed 10:26:56 AM 25.0961 -81.7661 North 162 186 10,000 -50 Level Miami Center
Wed 10:27:55 AM 25.1439 -81.7681 358° North 167 192 9,900 -50 Descending Miami Center
Wed 10:28:56 AM 25.1942 -81.7678 360° North 172 198 9,900  Level Miami Center
Wed 10:29:55 AM 25.2400 -81.7675 360° North 172 198 9,900  Level Miami Center
Wed 10:30:55 AM 25.2861 -81.7669 North 166 191 9,900  Level Miami Center
Wed 10:31:56 AM 25.3319 -81.7689 358° North 166 191 9,900  Level Miami Center
Wed 10:32:56 AM 25.3800 -81.7683 North 160 184 9,900  Level Miami Center
Wed 10:33:00 AM 25.3776 -81.7629 North  Level Estimated
Wed 10:33:56 AM 25.4281 -81.7681 360° North 160 184 9,900  Level Miami Center
Wed 10:34:56 AM 25.4739 -81.7700 358° North 160 184 9,900  Level Miami Center
Wed 10:35:56 AM 25.5197 -81.7694 North 160 184 9,900  Level Miami Center
Wed 10:36:55 AM 25.5553 -81.7686 North 160 184 9,900  Level Miami Center
Wed 10:37:56 AM 25.6094 -81.7731 356° North 160 184 9,900  Level Miami Center
Wed 10:38:56 AM 25.6533 -81.7681 North 160 184 9,900 50 Level Miami Center
Wed 10:39:56 AM 25.6972 -81.7722 355° North 160 184 10,000 50 Climbing Miami Center
Wed 10:40:56 AM 25.7431 -81.7717 North 160 184 10,000  Level Miami Center
Wed 10:41:56 AM 25.7869 -81.7711 North 160 184 10,000  Level Miami Center
Wed 10:42:56 AM 25.8350 -81.7708 360° North 160 184 10,000  Level Miami Center
Wed 10:43:56 AM 25.8789 -81.7703 North 160 184 10,000  Level Miami Center
Wed 10:44:56 AM 25.9247 -81.7722 358° North 160 184 10,000  Level Miami Center
Wed 10:45:56 AM 25.9667 -81.7717 North 160 184 10,000  Level Miami Center
Wed 10:46:56 AM 26.0103 -81.7733 358° North 160 184 10,000  Level Miami Center
Wed 10:47:56 AM 26.0542 -81.7731 360° North 160 184 10,000  Level Miami Center
Wed 11:04:56 AM 26.7878 -81.8150 North 154 177 10,000  Level Miami Center
Wed 11:05:00 AM 26.7890 -81.7587 North  Level FlightAware
Wed 11:05:55 AM 26.8253 -81.8144 North 154 177 10,000  Level Miami Center
Wed 11:06:00 AM 26.8320 -81.7574 North  Level FlightAware
Wed 11:06:56 AM 26.8753 -81.8142 360° North 154 177 10,000  Level Miami Center
Wed 11:07:00 AM 26.8751 -81.7561 North  Level FlightAware
Wed 11:07:56 AM 26.9108 -81.8111 North 166 191 10,000  Level Miami Center
Wed 11:08:00 AM 26.9181 -81.7549 North  Level FlightAware
Wed 11:08:56 AM 26.9528 -81.8058 North 155 178 10,000  Level Miami Center
Wed 11:09:00 AM 26.9612 -81.7536 North  Level FlightAware
Wed 11:09:56 AM 26.9989 -81.8056 360° North 155 178 9,400  Level Miami Center
Wed 11:10:00 AM 27.0042 -81.7523 North  Level FlightAware
Wed 11:10:56 AM 27.0511 -81.7983 North 161 185 8,900  Level Miami Center
Wed 11:11:56 AM 27.0994 -81.7958 North 161 185 8,300 -600 Descending Miami Center
Wed 11:12:56 AM 27.1494 -81.7908 North 161 185 7,700 -550 Descending Miami Center
Wed 11:13:56 AM 27.1978 -81.7883 North 161 185 7,200 -450 Descending Miami Center
Wed 11:14:56 AM 27.2439 -81.7833 North 161 185 6,800 -400 Descending Miami Center
Wed 11:15:56 AM 27.2939 -81.7783 North 167 192 6,400 -350 Descending Miami Center
Wed 11:16:56 AM 27.3444 -81.7711 North 172 198 6,100 -321 Descending Miami Center
Wed 11:18:07 AM 27.3925 -81.7661 North 172 198 5,700 -455 Descending Miami Center
Wed 11:19:08 AM 27.4492 -81.7617 North 172 198 5,100 -347 Descending Miami Center
Wed 11:20:08 AM 27.4931 -81.7589 North 167 192 5,000 -50 Descending Miami Center
Wed 11:21:08 AM 27.5367 -81.7583 North 161 185 5,000  Level Miami Center
Wed 11:22:08 AM 27.5725 -81.7553 North 151 174 5,000  Level Miami Center
Wed 11:23:08 AM 27.6122 -81.7522 North 151 174 5,000  Level Miami Center
Wed 11:24:08 AM 27.6581 -81.7542 358° North 146 168 5,000  Level Miami Center
Wed 11:25:08 AM 27.6978 -81.7536 North 141 162 5,000  Level Miami Center
Wed 11:26:08 AM 27.7372 -81.7528 North 141 162 5,000  Level Miami Center
Wed 11:27:08 AM 27.7728 -81.7497 North 136 157 5,000  Level Miami Center
Wed 11:29:19 AM 27.8667 -81.7500 360° North 142 163 5,000  Level Orlando TRACON
Wed 11:30:25 AM 27.9167 -81.7500 360° North 142 163 5,000  Level Orlando TRACON
Wed 11:31:26 AM 27.9500 -81.7500 360° North 143 165 5,000 -261 Level Orlando TRACON
Wed 11:32:20 AM 27.9833 -81.7333 24° Northeast 164 189 4,500 -450 Descending Orlando TRACON
Wed 11:33:26 AM 28.0333 -81.7000 30° Northeast 162 186 4,100 -248 Descending Orlando TRACON
Wed 11:34:21 AM 28.0667 -81.6833 24° Northeast 153 176 4,000 -52 Descending Orlando TRACON
Wed 11:35:21 AM 28.1000 -81.6667 24° Northeast 142 163 4,000  Level Orlando TRACON
Wed 11:36:21 AM 28.1333 -81.6500 24° Northeast 138 159 4,000  Level Orlando TRACON
Wed 11:37:21 AM 28.1667 -81.6167 41° Northeast 141 162 4,000  Level Orlando TRACON
Wed 11:38:27 AM 28.2000 -81.6000 24° Northeast 142 163 4,000  Level Orlando TRACON
Wed 11:39:27 AM 28.2500 -81.5833 16° North 142 163 4,000  Level Orlando TRACON
Wed 11:40:28 AM 28.2833 -81.5667 24° Northeast 144 166 4,000 -150 Level Orlando TRACON
Wed 11:41:27 AM 28.3167 -81.5667 360° North 148 170 3,700 -400 Descending Orlando TRACON
Wed 11:42:28 AM 28.3667 -81.5667 360° North 156 180 3,200 -470 Descending Orlando TRACON
Wed 11:43:22 AM 28.4000 -81.5500 24° Northeast 162 186 2,800 -550 Descending Orlando TRACON
Wed 11:44:28 AM 28.4500 -81.5333 16° North 163 188 2,100 -381 Descending Orlando TRACON
Wed 11:45:28 AM 28.4833 -81.5000 41° Northeast 142 163 2,000  Descending Orlando TRACON
Wed 11:46:28 AM 28.5000 -81.4667 60° Northeast 143 165 2,100 -99 Climbing Orlando TRACON
Wed 11:47:29 AM 28.5167 -81.4167 69° East 128 147 1,800 -446 Descending Orlando TRACON
Wed 11:48:29 AM 28.5167 -81.4000 90° East 105 121 1,200 -600 Descending Orlando TRACON
Wed 11:49:29 AM 28.5333 -81.3667 60° Northeast 107 123 600 -600 Descending Orlando TRACON
Wed 11:51:00 AM 28.5455 -81.3329 90° East  Level Estimated
Wed 11:58:00 AM 28.5455 -81.3329 90° East  Level Estimated
Wed 11:59:00 AM 28.5455 -81.3329 90° East  Level Estimated
Wed 12:00:00 PM 28.5455 -81.3329 90° East  Level Estimated
Wed 12:01:00 PM 28.5455 -81.3329 90° East  Level Estimated

Login

Don't have an account? Register now (free) for customized features, flight alerts, and more!